Terminal Aerodrome Forecast
Issued by NWS

Home | Current Version | Previous Version | Text Only | Print | Product List | Glossary On
Versions: 1 2 3 4 5 6 7 8 9 10 11 12 13 14 15 16 17 18 19 20 21 22 23 24 25 26 27 28 29 30 31 32 33 34 35 36 37 38 39 40 41 42 43 44 45 46 47 48 49 50
616
FTUS43 KDMX 190624 AAB
TAFOTM
TAF AMD
KOTM 190624Z 1906/2006 17007KT 1/2SM FG OVC003
      TEMPO 1906/1908 1/4SM FG
     FM191500 11006KT 4SM BR BKN010
     FM200100 10005KT 2SM BR OVC005=

USA.gov is the U.S. government's official web portal to all federal, state and local government web resources and services.